Magic Kingdom, Florida
Current Conditions -  °F | °C
As of 6:50 AM on Saturday 20 Dec 2014 (Local Time) from KISM Reporting Station
Clear Clear  
Wind Chill: 55°   Ceiling: Unl
Heat Index: 55°   Visibility: 10mi
Dew Point: 54°   Wind: 0mph
Humidity: 94%   Direction: NA
Pressure: 30.1"   Gusts: NA
Location:  28.42°N, 81.58°W
Report Text: KISM 201150Z 00000KT 10SM SKC 13/12 A3010 RMK FIRST
Loading
Personal Weather Stations






























Interactive Weather Map New forecast layout! Learn more

10-Day Weather Forecast

Advertisements
Track Severe Weather on mobile